Time;durP1;ratioP1;P1;durP2;ratioP2;P2;SDS_P1;SDS_P2;PMS_P1;PMS_P2;Temp;Humidity;BMP_temperature;BMP_pressure;BME280_temperature;BME280_humidity;BME280_pressure;Samples;Min_cycle;Max_cycle;Signal;HPM_P1;HPM_P2
2022/05/20 00:00:31;;;;;;;0.40;0.40;;;14.30;99.90;;;;;;5093891;28;20377;-74
2022/05/20 00:02:56;;;;;;;0.30;0.30;;;14.30;99.90;;;;;;5094021;28;20050;-74
2022/05/20 00:05:22;;;;;;;0.52;0.50;;;14.30;99.90;;;;;;5094261;28;20048;-74
2022/05/20 00:07:47;;;;;;;0.40;0.40;;;14.30;99.90;;;;;;5084401;28;20089;-75
2022/05/20 00:10:15;;;;;;;0.30;0.30;;;14.30;99.90;;;;;;5073371;28;20052;-74
2022/05/20 00:12:41;;;;;;;0.30;0.30;;;14.30;99.90;;;;;;5076965;28;20097;-74
2022/05/20 00:15:09;;;;;;;0.47;0.45;;;14.40;99.90;;;;;;5093663;28;20047;-74
2022/05/20 00:17:35;;;;;;;0.95;0.95;;;14.40;99.90;;;;;;5092532;28;20040;-74
2022/05/20 00:20:03;;;;;;;0.40;0.40;;;14.40;99.90;;;;;;5092882;28;20048;-74
2022/05/20 00:22:28;;;;;;;0.50;0.50;;;14.40;99.90;;;;;;5093825;28;20096;-74
2022/05/20 00:27:38;;;;;;;0.57;0.57;;;14.30;99.90;;;;;;5092602;28;20044;-73
2022/05/20 00:30:04;;;;;;;0.50;0.50;;;14.20;99.90;;;;;;5093649;28;20040;-74
2022/05/20 00:32:30;;;;;;;0.40;0.40;;;14.20;99.90;;;;;;5093800;28;20483;-74
2022/05/20 00:34:55;;;;;;;0.40;0.40;;;14.20;99.90;;;;;;5093656;28;20051;-74
2022/05/20 00:37:21;;;;;;;0.40;0.40;;;14.10;99.90;;;;;;5088769;28;20040;-74
2022/05/20 00:39:46;;;;;;;0.33;0.33;;;14.10;99.90;;;;;;5073678;28;20136;-74
2022/05/20 00:42:15;;;;;;;0.40;0.40;;;14.10;99.90;;;;;;5073326;28;20040;-74
2022/05/20 00:44:41;;;;;;;0.88;0.75;;;14.10;99.90;;;;;;5073292;28;20045;-74
2022/05/20 00:47:07;;;;;;;0.40;0.40;;;14.10;99.90;;;;;;5073282;28;20051;-74
2022/05/20 00:49:34;;;;;;;0.40;0.40;;;14.10;99.90;;;;;;5093518;28;20040;-74
2022/05/20 00:52:01;;;;;;;0.40;0.40;;;14.00;99.90;;;;;;5093245;28;20048;-74
2022/05/20 00:54:33;;;;;;;0.40;0.40;;;14.10;99.90;;;;;;5093196;28;20456;-74
2022/05/20 00:57:06;;;;;;;0.40;0.40;;;14.10;99.90;;;;;;5073255;28;20080;-74
2022/05/20 00:59:36;;;;;;;0.30;0.30;;;14.10;99.90;;;;;;5076840;28;20040;-74
2022/05/20 01:02:12;;;;;;;0.50;0.50;;;14.10;99.90;;;;;;5076915;28;20044;-74
2022/05/20 01:04:39;;;;;;;0.40;0.40;;;14.10;99.90;;;;;;5077363;28;20052;-74
2022/05/20 01:07:07;;;;;;;0.40;0.40;;;14.10;99.90;;;;;;5076835;28;20455;-74
2022/05/20 01:09:35;;;;;;;0.40;0.40;;;14.10;99.90;;;;;;5093614;28;20047;-74
2022/05/20 01:12:02;;;;;;;0.40;0.40;;;14.00;99.90;;;;;;5087241;28;20183;-74
2022/05/20 01:14:27;;;;;;;0.30;0.30;;;14.10;99.90;;;;;;5076382;28;20079;-74
2022/05/20 01:16:53;;;;;;;0.40;0.40;;;14.10;99.90;;;;;;5076647;28;20496;-74
2022/05/20 01:19:36;;;;;;;0.40;0.40;;;14.10;99.90;;;;;;5076435;28;20045;-74
2022/05/20 01:22:04;;;;;;;0.40;0.40;;;14.00;99.90;;;;;;5076757;28;20053;-74
2022/05/20 01:24:30;;;;;;;0.40;0.40;;;14.00;99.90;;;;;;5083074;28;20036;-74
2022/05/20 01:26:55;;;;;;;0.40;0.40;;;14.00;99.90;;;;;;5096836;28;20123;-74
2022/05/20 01:29:21;;;;;;;2.50;0.40;;;14.00;99.90;;;;;;5096762;28;20556;-74
2022/05/20 01:31:46;;;;;;;0.40;0.40;;;14.00;99.90;;;;;;5096612;28;20052;-74
2022/05/20 01:34:12;;;;;;;0.32;0.32;;;13.90;99.90;;;;;;5092660;28;20365;-74
2022/05/20 01:36:37;;;;;;;0.50;0.50;;;14.00;99.90;;;;;;5075915;28;20481;-74
2022/05/20 01:39:03;;;;;;;0.30;0.30;;;14.00;99.90;;;;;;5076368;28;20041;-74
2022/05/20 01:41:47;;;;;;;0.43;0.43;;;14.00;99.90;;;;;;5079312;28;20505;-74
2022/05/20 01:44:31;;;;;;;0.38;0.38;;;14.00;99.90;;;;;;5092877;28;20045;-74
2022/05/20 01:47:13;;;;;;;0.30;0.30;;;14.00;99.90;;;;;;5076518;28;20083;-74
2022/05/20 01:49:49;;;;;;;0.40;0.40;;;14.00;99.90;;;;;;5076370;28;20037;-74
2022/05/20 01:52:25;;;;;;;0.38;0.38;;;14.00;99.90;;;;;;5076121;28;20045;-74
2022/05/20 01:54:57;;;;;;;0.40;0.40;;;14.00;99.90;;;;;;5076025;28;20107;-74
2022/05/20 01:57:44;;;;;;;0.60;0.60;;;14.00;99.90;;;;;;5075926;28;20048;-74
2022/05/20 02:00:14;;;;;;;0.40;0.40;;;13.90;99.90;;;;;;5075874;28;20128;-74
2022/05/20 02:03:14;;;;;;;0.40;0.40;;;13.90;99.90;;;;;;5076793;28;20040;-74
2022/05/20 02:05:50;;;;;;;0.60;0.60;;;13.90;99.90;;;;;;5091743;28;20062;-74
2022/05/20 02:08:25;;;;;;;0.40;0.40;;;13.80;99.90;;;;;;5095941;28;20044;-73
2022/05/20 02:11:04;;;;;;;0.50;0.50;;;13.80;99.90;;;;;;5095934;28;20480;-73
2022/05/20 02:13:33;;;;;;;0.40;0.40;;;13.80;99.90;;;;;;5092004;28;20148;-73
2022/05/20 02:16:02;;;;;;;0.38;0.38;;;13.80;99.90;;;;;;5075410;28;20048;-73
2022/05/20 02:18:37;;;;;;;0.40;0.40;;;13.80;99.90;;;;;;5075962;28;20080;-74
2022/05/20 02:21:08;;;;;;;0.30;0.30;;;13.80;99.90;;;;;;5075727;28;20056;-74
2022/05/20 02:23:39;;;;;;;0.30;0.30;;;13.80;99.90;;;;;;5075437;28;20041;-74
2022/05/20 02:26:09;;;;;;;0.30;0.30;;;13.80;99.90;;;;;;5086321;28;20467;-73
2022/05/20 02:28:39;;;;;;;0.30;0.30;;;13.80;99.90;;;;;;5095927;28;20044;-74
2022/05/20 02:31:10;;;;;;;0.30;0.30;;;13.80;99.90;;;;;;5099096;28;20044;-74
2022/05/20 02:33:36;;;;;;;0.30;0.30;;;13.80;99.90;;;;;;5098109;28;20641;-74
2022/05/20 02:36:08;;;;;;;0.40;0.40;;;13.80;99.90;;;;;;5095841;28;20047;-74
2022/05/20 02:38:35;;;;;;;0.30;0.30;;;13.80;99.90;;;;;;5095478;28;20127;-74
2022/05/20 02:41:01;;;;;;;0.40;0.40;;;13.70;99.90;;;;;;5095184;28;20044;-74
2022/05/20 02:43:27;;;;;;;0.30;0.30;;;13.70;99.90;;;;;;5095316;28;20063;-74
2022/05/20 02:45:52;;;;;;;0.40;0.40;;;13.70;99.90;;;;;;5077235;28;20485;-74
2022/05/20 02:48:20;;;;;;;0.40;0.40;;;13.60;99.90;;;;;;5074845;28;20044;-74
2022/05/20 02:50:46;;;;;;;0.40;0.40;;;13.50;99.90;;;;;;5074820;28;20083;-74
2022/05/20 02:53:12;;;;;;;0.40;0.40;;;13.40;99.90;;;;;;5074479;28;20040;-74
2022/05/20 02:55:38;;;;;;;0.30;0.30;;;13.40;99.90;;;;;;5089033;28;20055;-74
2022/05/20 02:58:04;;;;;;;0.30;0.30;;;13.30;99.90;;;;;;5094220;28;20040;-74
2022/05/20 03:05:59;;;;;;;0.40;0.40;;;13.10;99.90;;;;;;5090567;28;20131;-74
2022/05/20 03:08:25;;;;;;;0.30;0.30;;;13.00;99.90;;;;;;5094735;28;20492;-74
2022/05/20 03:10:50;;;;;;;0.40;0.40;;;13.00;99.90;;;;;;5094908;28;20142;-74
2022/05/20 03:13:17;;;;;;;0.30;0.30;;;12.90;99.90;;;;;;5094691;28;20094;-74
2022/05/20 03:15:44;;;;;;;0.32;0.32;;;12.90;99.90;;;;;;5092913;28;20040;-74
2022/05/20 03:18:12;;;;;;;0.30;0.30;;;12.90;99.90;;;;;;5094592;28;20090;-74
2022/05/20 03:20:39;;;;;;;0.40;0.40;;;12.80;99.90;;;;;;5092538;28;20051;-74
2022/05/20 03:23:06;;;;;;;0.30;0.30;;;12.80;99.90;;;;;;5094484;28;20040;-74
2022/05/20 03:25:31;;;;;;;0.40;0.40;;;12.80;99.90;;;;;;5093451;28;20122;-75
2022/05/20 03:27:58;;;;;;;0.40;0.40;;;12.80;99.90;;;;;;5094418;28;20075;-74
2022/05/20 03:30:24;;;;;;;0.40;0.40;;;12.80;99.90;;;;;;5092629;28;20094;-74
2022/05/20 03:32:50;;;;;;;0.40;0.40;;;12.80;99.90;;;;;;5094044;28;20545;-74
2022/05/20 03:35:15;;;;;;;0.40;0.40;;;12.90;99.90;;;;;;5093231;28;20071;-73
2022/05/20 03:37:41;;;;;;;0.37;0.37;;;12.90;99.90;;;;;;5094021;28;20128;-73
2022/05/20 03:40:07;;;;;;;0.40;0.40;;;12.90;99.90;;;;;;5094557;28;20043;-73
2022/05/20 03:42:33;;;;;;;0.40;0.40;;;12.90;99.90;;;;;;5093759;28;20044;-73
2022/05/20 03:44:59;;;;;;;0.32;0.32;;;13.00;99.90;;;;;;5085632;28;20492;-73
2022/05/20 03:47:24;;;;;;;0.30;0.30;;;13.00;99.90;;;;;;5074059;28;20056;-73
2022/05/20 03:49:50;;;;;;;0.40;0.40;;;13.00;99.90;;;;;;5073841;28;20064;-73
2022/05/20 03:52:16;;;;;;;0.40;0.40;;;13.10;99.90;;;;;;5072598;28;20052;-73
2022/05/20 03:54:42;;;;;;;0.30;0.30;;;13.10;99.90;;;;;;5079077;28;20434;-73
2022/05/20 03:57:08;;;;;;;0.40;0.40;;;13.10;99.90;;;;;;5093993;28;20089;-73
2022/05/20 03:59:36;;;;;;;0.40;0.40;;;13.20;99.90;;;;;;5093070;28;20040;-74
2022/05/20 04:02:05;;;;;;;0.40;0.40;;;13.20;99.90;;;;;;5093921;28;20048;-76
2022/05/20 04:04:38;;;;;;;0.40;0.40;;;13.20;99.90;;;;;;5089040;28;20083;-76
2022/05/20 04:07:15;;;;;;;0.40;0.40;;;13.20;99.90;;;;;;5073622;28;20488;-76
2022/05/20 04:09:41;;;;;;;0.45;0.45;;;13.30;99.90;;;;;;5074011;28;20071;-78
2022/05/20 04:12:12;;;;;;;0.40;0.40;;;13.30;99.90;;;;;;5074265;28;20070;-76
2022/05/20 04:14:38;;;;;;;0.40;0.40;;;13.30;99.90;;;;;;5088628;28;20537;-76
2022/05/20 04:17:04;;;;;;;0.40;0.40;;;13.30;99.90;;;;;;5092840;28;20044;-76
2022/05/20 04:19:31;;;;;;;0.40;0.40;;;13.40;99.90;;;;;;5090372;28;20150;-75
2022/05/20 04:22:01;;;;;;;0.40;0.40;;;13.40;99.90;;;;;;5081314;28;20467;-77
2022/05/20 04:24:26;;;;;;;0.40;0.40;;;13.40;99.90;;;;;;5090618;28;20087;-79
2022/05/20 04:26:52;;;;;;;0.40;0.40;;;13.50;99.90;;;;;;5081777;28;20041;-78
2022/05/20 04:29:18;;;;;;;0.50;0.50;;;13.50;99.90;;;;;;5072328;28;20155;-74
2022/05/20 04:31:47;;;;;;;0.40;0.40;;;13.50;99.90;;;;;;5076635;28;20040;-75
2022/05/20 04:34:13;;;;;;;0.40;0.40;;;13.50;99.90;;;;;;5097812;28;20294;-77
2022/05/20 04:36:38;;;;;;;0.40;0.40;;;13.50;99.90;;;;;;5097712;28;20098;-78
2022/05/20 04:39:04;;;;;;;0.40;0.40;;;13.50;99.90;;;;;;5083095;28;20123;-76
2022/05/20 04:47:20;;;;;;;0.40;0.40;;;13.70;99.90;;;;;;5092235;28;20898;-74
2022/05/20 04:49:46;;;;;;;1.65;1.55;;;13.80;99.90;;;;;;5078085;28;20082;-74
2022/05/20 04:52:12;;;;;;;0.30;0.30;;;13.90;99.90;;;;;;5085820;28;21910;-77
2022/05/20 04:54:50;;;;;;;0.30;0.30;;;13.90;99.90;;;;;;5095290;28;20044;-75
2022/05/20 04:57:25;;;;;;;0.38;0.38;;;14.00;99.90;;;;;;5077815;28;20123;-74
2022/05/20 04:59:52;;;;;;;0.40;0.40;;;14.10;99.90;;;;;;5076958;28;20093;-76
2022/05/20 05:02:18;;;;;;;;;;;14.10;99.90;;;;;;5077361;28;20136;-77
2022/05/20 05:04:44;;;;;;;0.40;0.40;;;14.10;99.90;;;;;;5090522;28;20006;-79
2022/05/20 05:07:10;;;;;;;0.40;0.40;;;14.10;99.90;;;;;;5097250;28;20040;-74
2022/05/20 05:09:40;;;;;;;0.40;0.40;;;14.10;99.90;;;;;;5096971;28;20052;-71
2022/05/20 05:12:14;;;;;;;0.40;0.40;;;14.00;99.90;;;;;;5091706;28;20101;-72
2022/05/20 05:14:43;;;;;;;0.40;0.40;;;14.00;99.90;;;;;;5075177;28;20485;-73
2022/05/20 05:17:10;;;;;;;0.40;0.40;;;14.00;99.90;;;;;;5075269;28;20363;-73
2022/05/20 05:19:36;;;;;;;;;;;13.90;99.90;;;;;;5078009;28;20044;-71
2022/05/20 05:22:03;;;;;;;0.40;0.40;;;13.90;99.90;;;;;;5077757;28;19920;-69
2022/05/20 05:24:29;;;;;;;;;;;13.80;99.90;;;;;;5078989;28;20059;-71
2022/05/20 05:26:54;;;;;;;0.40;0.40;;;13.80;99.90;;;;;;5078943;28;19921;-76
2022/05/20 05:29:20;;;;;;;0.40;0.40;;;13.80;99.90;;;;;;5078602;28;20076;-71
2022/05/20 05:31:45;;;;;;;0.95;0.95;;;13.80;99.90;;;;;;5078929;28;20060;-71
2022/05/20 05:34:11;;;;;;;0.40;0.40;;;13.80;99.90;;;;;;5078269;28;20048;-73
2022/05/20 05:36:37;;;;;;;0.40;0.40;;;13.90;99.90;;;;;;5078538;28;20118;-71
2022/05/20 05:39:02;;;;;;;0.40;0.40;;;13.90;99.90;;;;;;5078137;28;20063;-75
2022/05/20 05:41:28;;;;;;;0.50;0.50;;;14.00;99.90;;;;;;5077930;28;20472;-70
2022/05/20 05:43:54;;;;;;;0.40;0.40;;;14.00;99.90;;;;;;5077387;28;20044;-74
2022/05/20 05:46:20;;;;;;;0.50;0.50;;;13.90;99.90;;;;;;5078235;28;20484;-73
2022/05/20 05:48:45;;;;;;;0.30;0.30;;;13.90;99.90;;;;;;5078447;28;20087;-69
2022/05/20 05:51:11;;;;;;;0.40;0.40;;;14.00;99.90;;;;;;5078250;28;20509;-72
2022/05/20 05:53:37;;;;;;;0.40;0.40;;;14.00;99.90;;;;;;5078460;28;20055;-74
2022/05/20 05:56:05;;;;;;;0.40;0.40;;;14.20;99.90;;;;;;5078294;28;20392;-70
2022/05/20 05:58:32;;;;;;;0.60;0.60;;;14.40;99.90;;;;;;5078294;28;20501;-73
2022/05/20 06:00:58;;;;;;;0.40;0.40;;;14.50;99.90;;;;;;5081161;28;20120;-72
2022/05/20 06:03:24;;;;;;;0.53;0.53;;;14.70;99.90;;;;;;5080237;28;20536;-71
2022/05/20 06:05:50;;;;;;;0.40;0.40;;;14.70;99.90;;;;;;5077118;28;20040;-72
2022/05/20 06:08:16;;;;;;;0.50;0.50;;;14.90;99.90;;;;;;5076883;28;20055;-74
2022/05/20 06:10:42;;;;;;;0.37;0.37;;;15.00;99.90;;;;;;5076802;28;20076;-73
2022/05/20 06:13:09;;;;;;;0.30;0.30;;;15.10;99.90;;;;;;5076050;28;20283;-70
2022/05/20 06:15:36;;;;;;;0.40;0.40;;;15.00;99.90;;;;;;5075951;28;20066;-71
2022/05/20 06:18:02;;;;;;;0.40;0.40;;;14.90;99.90;;;;;;5075552;28;20055;-71
2022/05/20 06:20:27;;;;;;;0.50;0.50;;;14.90;99.90;;;;;;5075441;28;20044;-74
2022/05/20 06:22:53;;;;;;;3.72;0.52;;;14.90;99.90;;;;;;5075562;28;20507;-70
2022/05/20 06:25:19;;;;;;;0.30;0.30;;;15.10;99.90;;;;;;5075506;28;20106;-72
2022/05/20 06:27:45;;;;;;;0.40;0.40;;;15.30;99.90;;;;;;5075682;28;20045;-73
2022/05/20 06:30:14;;;;;;;0.30;0.30;;;15.40;99.90;;;;;;5075284;28;20040;-73
2022/05/20 06:32:40;;;;;;;0.30;0.30;;;15.60;99.90;;;;;;5075302;28;20290;-73
2022/05/20 06:40:44;;;;;;;0.30;0.30;;;16.00;99.90;;;;;;5075212;28;20400;-74
2022/05/20 06:43:20;;;;;;;0.57;0.57;;;16.20;99.90;;;;;;5075102;28;20045;-73
2022/05/20 06:45:50;;;;;;;0.40;0.40;;;16.30;99.90;;;;;;5075088;28;20044;-74
2022/05/20 06:48:17;;;;;;;0.40;0.40;;;16.30;99.90;;;;;;5075357;28;20048;-70
2022/05/20 06:50:42;;;;;;;0.43;0.43;;;16.30;99.90;;;;;;5074849;28;20469;-73
2022/05/20 06:53:09;;;;;;;0.30;0.30;;;16.40;99.90;;;;;;5074946;28;20070;-71
2022/05/20 06:55:35;;;;;;;0.50;0.50;;;16.50;99.90;;;;;;5073849;28;20041;-73
2022/05/20 06:58:02;;;;;;;0.30;0.30;;;16.40;99.90;;;;;;5074709;28;20051;-71
2022/05/20 07:00:28;;;;;;;0.40;0.40;;;16.60;99.90;;;;;;5074587;28;20063;-71
2022/05/20 07:02:54;;;;;;;0.30;0.30;;;16.50;99.90;;;;;;5075139;28;20393;-71
2022/05/20 07:05:19;;;;;;;0.50;0.50;;;16.50;99.90;;;;;;5074631;28;20048;-73
2022/05/20 07:07:45;;;;;;;0.30;0.30;;;16.50;99.90;;;;;;5074564;28;20044;-74
2022/05/20 07:10:13;;;;;;;1.20;0.90;;;16.60;99.90;;;;;;5074625;28;20063;-71
2022/05/20 07:12:38;;;;;;;2.95;0.40;;;16.40;99.90;;;;;;5074399;28;20051;-72
2022/05/20 07:15:05;;;;;;;0.30;0.30;;;16.20;99.90;;;;;;5074887;28;20044;-71
2022/05/20 07:17:31;;;;;;;0.45;0.45;;;16.20;99.90;;;;;;5074360;28;20047;-73
2022/05/20 07:19:57;;;;;;;0.57;0.53;;;16.10;99.90;;;;;;5074587;28;20036;-73
2022/05/20 07:22:23;;;;;;;0.47;0.47;;;16.10;99.90;;;;;;5074436;28;20054;-74
2022/05/20 07:24:49;;;;;;;0.35;0.35;;;16.20;99.90;;;;;;5074211;28;20052;-70
2022/05/20 07:27:15;;;;;;;2.07;0.77;;;16.30;99.90;;;;;;5074186;28;20143;-71
2022/05/20 07:29:41;;;;;;;0.30;0.30;;;16.30;99.90;;;;;;5074118;28;20040;-69
2022/05/20 07:32:07;;;;;;;0.40;0.40;;;16.60;99.90;;;;;;5073913;28;20481;-72
2022/05/20 07:34:33;;;;;;;0.30;0.30;;;16.90;99.90;;;;;;5074038;28;20037;-74
2022/05/20 07:36:59;;;;;;;0.80;0.40;;;16.90;99.90;;;;;;5074109;28;20045;-72
2022/05/20 07:39:25;;;;;;;0.80;0.80;;;17.10;99.90;;;;;;5073960;28;20036;-72
2022/05/20 07:41:51;;;;;;;0.50;0.50;;;17.00;99.90;;;;;;5073992;28;20123;-74
2022/05/20 07:44:17;;;;;;;0.30;0.30;;;17.00;99.90;;;;;;5073976;28;20094;-74
2022/05/20 07:46:43;;;;;;;0.70;0.70;;;17.00;99.90;;;;;;5073923;28;20400;-70
2022/05/20 07:49:09;;;;;;;0.30;0.30;;;17.10;99.90;;;;;;5073892;28;20044;-70
2022/05/20 07:51:37;;;;;;;0.40;0.40;;;17.10;99.90;;;;;;5073919;28;20048;-71
2022/05/20 07:54:08;;;;;;;0.30;0.30;;;17.10;99.90;;;;;;5073846;28;20121;-73
2022/05/20 07:56:38;;;;;;;0.40;0.40;;;17.10;99.90;;;;;;5073882;28;20037;-69
2022/05/20 07:59:14;;;;;;;0.30;0.30;;;17.10;99.90;;;;;;5074235;28;20169;-69
2022/05/20 08:01:45;;;;;;;0.30;0.30;;;17.30;99.90;;;;;;5073784;28;20050;-73
2022/05/20 08:07:01;;;;;;;0.40;0.40;;;17.40;99.90;;;;;;5073340;28;20090;-72
2022/05/20 08:09:27;;;;;;;0.40;0.40;;;17.50;99.90;;;;;;5073505;28;20095;-73
2022/05/20 08:11:53;;;;;;;0.30;0.30;;;17.60;99.90;;;;;;5073728;28;20101;-71
2022/05/20 08:14:19;;;;;;;0.43;0.43;;;17.60;99.90;;;;;;5073642;28;20790;-72
2022/05/20 08:16:44;;;;;;;0.47;0.40;;;17.70;99.90;;;;;;5073623;28;20048;-73
2022/05/20 08:19:10;;;;;;;0.30;0.30;;;17.80;99.90;;;;;;5073594;28;20044;-72
2022/05/20 08:21:36;;;;;;;0.30;0.30;;;17.90;99.90;;;;;;5073603;28;20127;-70
2022/05/20 08:24:02;;;;;;;0.60;0.60;;;18.00;99.90;;;;;;5073556;28;20044;-72
2022/05/20 08:26:27;;;;;;;1.30;0.73;;;18.20;99.90;;;;;;5073247;28;20049;-71
2022/05/20 08:28:53;;;;;;;0.40;0.40;;;18.30;99.90;;;;;;5073549;28;20044;-74
2022/05/20 08:31:18;;;;;;;0.50;0.50;;;18.50;99.90;;;;;;5073181;28;20049;-74
2022/05/20 08:33:44;;;;;;;0.40;0.40;;;18.60;99.90;;;;;;5073476;28;20122;-73
2022/05/20 08:36:10;;;;;;;0.70;0.70;;;18.70;99.90;;;;;;5073358;28;20385;-72
2022/05/20 08:38:36;;;;;;;1.53;0.87;;;18.80;99.90;;;;;;5073118;28;20053;-73
2022/05/20 08:41:02;;;;;;;0.30;0.30;;;18.90;99.90;;;;;;5073700;28;20036;-73
2022/05/20 08:43:31;;;;;;;2.30;0.82;;;18.80;99.90;;;;;;5073399;28;20040;-74
2022/05/20 08:45:58;;;;;;;0.95;0.55;;;18.80;99.90;;;;;;5073607;28;20048;-72
2022/05/20 08:48:24;;;;;;;0.40;0.40;;;19.10;99.90;;;;;;5073164;28;20041;-72
2022/05/20 08:50:53;;;;;;;6.83;1.17;;;19.10;99.90;;;;;;5073170;28;20052;-77
2022/05/20 08:53:41;;;;;;;0.73;0.63;;;19.10;99.90;;;;;;5073216;28;20095;-73
2022/05/20 08:56:10;;;;;;;0.93;0.50;;;19.20;99.90;;;;;;5072074;28;20040;-74
2022/05/20 08:58:41;;;;;;;0.30;0.30;;;19.00;99.90;;;;;;5073758;28;20113;-76
2022/05/20 09:01:08;;;;;;;0.40;0.40;;;18.70;99.90;;;;;;5073249;28;20040;-72
2022/05/20 09:03:34;;;;;;;0.30;0.30;;;18.70;99.90;;;;;;5073102;28;20131;-73
2022/05/20 09:06:10;;;;;;;0.30;0.30;;;18.90;99.90;;;;;;5073148;28;20155;-74
2022/05/20 09:08:35;;;;;;;0.50;0.50;;;19.20;99.90;;;;;;5073138;28;20496;-75
2022/05/20 09:11:04;;;;;;;0.93;0.53;;;19.30;99.90;;;;;;5073236;28;20127;-74
2022/05/20 09:16:23;;;;;;;0.40;0.40;;;19.60;99.90;;;;;;5073097;28;20052;-76
2022/05/20 09:19:10;;;;;;;0.40;0.40;;;19.80;99.90;;;;;;5073413;28;20442;-72
2022/05/20 09:21:39;;;;;;;5.70;1.50;;;19.90;99.90;;;;;;5076542;28;20048;-72
2022/05/20 09:24:08;;;;;;;0.32;0.32;;;19.90;99.90;;;;;;5076524;28;20123;-71
2022/05/20 09:26:40;;;;;;;0.30;0.30;;;20.00;99.90;;;;;;5076298;28;20055;-75
2022/05/20 09:29:11;;;;;;;0.98;0.63;;;19.90;99.90;;;;;;5077108;28;20040;-75
2022/05/20 09:31:56;;;;;;;0.30;0.30;;;19.90;99.90;;;;;;5076398;28;20056;-71
2022/05/20 09:34:24;;;;;;;0.30;0.30;;;20.10;99.90;;;;;;5076440;28;20491;-73
2022/05/20 09:36:58;;;;;;;0.90;0.55;;;20.20;99.90;;;;;;5076166;28;20044;-73
2022/05/20 09:39:42;;;;;;;1.15;0.40;;;20.20;99.90;;;;;;5076725;28;20032;-74
2022/05/20 09:42:26;;;;;;;0.50;0.50;;;20.30;99.90;;;;;;5076216;28;20135;-72
2022/05/20 09:45:00;;;;;;;0.25;0.25;;;20.20;99.90;;;;;;5076226;28;20123;-74
2022/05/20 09:47:40;;;;;;;0.30;0.30;;;20.30;99.90;;;;;;5076091;28;20084;-74
2022/05/20 09:50:23;;;;;;;0.20;0.20;;;20.40;99.90;;;;;;5076175;28;20055;-74
2022/05/20 09:53:10;;;;;;;0.30;0.30;;;20.50;99.90;;;;;;5076210;28;20087;-72
2022/05/20 09:55:44;;;;;;;0.30;0.30;;;20.70;99.90;;;;;;5076273;28;20044;-73
2022/05/20 09:58:19;;;;;;;0.57;0.57;;;20.70;99.90;;;;;;5076294;28;20084;-74
2022/05/20 10:00:57;;;;;;;0.30;0.30;;;20.70;99.90;;;;;;5076041;28;20032;-74
2022/05/20 10:03:38;;;;;;;0.50;0.50;;;20.90;99.30;;;;;;5075891;28;20106;-71
2022/05/20 10:06:32;;;;;;;0.20;0.20;;;20.80;99.90;;;;;;5075806;28;20044;-76
2022/05/20 10:09:10;;;;;;;2.60;0.88;;;20.80;99.90;;;;;;5075628;28;20435;-72
2022/05/20 10:11:40;;;;;;;0.60;0.60;;;20.80;99.90;;;;;;5075938;28;20055;-70
2022/05/20 10:14:14;;;;;;;0.30;0.30;;;20.60;99.90;;;;;;5075706;28;20055;-76
2022/05/20 10:16:48;;;;;;;0.30;0.30;;;20.70;99.90;;;;;;5075591;28;20102;-74
2022/05/20 10:19:35;;;;;;;0.30;0.30;;;20.80;99.90;;;;;;5075511;28;20052;-74
2022/05/20 10:22:10;;;;;;;0.45;0.40;;;20.90;99.90;;;;;;5075547;28;20378;-72
2022/05/20 10:24:59;;;;;;;1.75;1.10;;;20.80;99.90;;;;;;5075612;28;20205;-74
2022/05/20 10:27:48;;;;;;;0.45;0.45;;;20.80;98.00;;;;;;5075404;28;20041;-74
2022/05/20 10:33:28;;;;;;;0.20;0.20;;;20.80;97.00;;;;;;5075215;28;20048;-71
2022/05/20 10:36:18;;;;;;;0.38;0.38;;;21.10;96.80;;;;;;5074224;28;20044;-71
2022/05/20 10:38:49;;;;;;;0.30;0.30;;;21.20;99.90;;;;;;5075032;28;20048;-73
2022/05/20 10:41:52;;;;;;;0.40;0.40;;;21.30;97.60;;;;;;5075007;28;20086;-73
2022/05/20 10:50:34;;;;;;;0.52;0.52;;;21.30;98.60;;;;;;5074644;28;20539;-73
2022/05/20 10:53:27;;;;;;;0.75;0.75;;;21.20;99.90;;;;;;5075198;28;20080;-73
2022/05/20 10:56:19;;;;;;;0.30;0.30;;;21.00;99.90;;;;;;5074835;28;20036;-73
2022/05/20 10:58:56;;;;;;;0.30;0.30;;;21.20;98.40;;;;;;5075431;28;20048;-76
2022/05/20 11:01:27;;;;;;;;;;;21.20;98.30;;;;;;5075090;28;20036;-74
2022/05/20 11:04:14;;;;;;;0.20;0.20;;;21.40;99.90;;;;;;5074805;28;19920;-72
2022/05/20 11:07:21;;;;;;;0.50;0.50;;;21.50;96.80;;;;;;5074543;28;20049;-73
2022/05/20 11:09:58;;;;;;;0.40;0.40;;;21.50;96.60;;;;;;5050861;28;20055;-76
2022/05/20 11:12:36;;;;;;;;;;;21.50;96.60;;;;;;5074966;28;20044;-72
2022/05/20 11:15:10;;;;;;;0.30;0.30;;;21.50;98.40;;;;;;5074473;28;19924;-76
2022/05/20 11:17:56;;;;;;;0.20;0.20;;;21.60;97.30;;;;;;5074418;28;20117;-72
2022/05/20 11:20:43;;;;;;;0.38;0.38;;;21.60;98.40;;;;;;5074529;28;20052;-74
2022/05/20 11:23:47;;;;;;;0.20;0.20;;;21.60;98.80;;;;;;5074275;28;20548;-72
2022/05/20 11:26:41;;;;;;;0.43;0.43;;;21.60;98.70;;;;;;5074238;28;20048;-73
2022/05/20 11:29:18;;;;;;;0.50;0.50;;;21.80;99.90;;;;;;5074173;28;20044;-73
2022/05/20 11:32:00;;;;;;;0.40;0.40;;;21.80;99.40;;;;;;5074023;28;20051;-73
2022/05/20 11:35:06;;;;;;;1.70;1.15;;;21.70;99.80;;;;;;5074495;28;20139;-75
2022/05/20 11:37:48;;;;;;;0.75;0.63;;;21.70;98.60;;;;;;5074378;28;20101;-73
2022/05/20 11:40:37;;;;;;;0.30;0.30;;;21.70;99.60;;;;;;5073892;28;20484;-74
2022/05/20 11:43:21;;;;;;;0.30;0.30;;;21.90;97.10;;;;;;5072811;28;20053;-73
2022/05/20 11:46:01;;;;;;;0.30;0.30;;;22.10;97.50;;;;;;5074258;28;20045;-76
2022/05/20 11:48:36;;;;;;;0.90;0.55;;;22.30;98.50;;;;;;5074035;28;20041;-73
2022/05/20 11:51:58;;;;;;;0.35;0.35;;;22.10;96.70;;;;;;5074049;28;20059;-74
2022/05/20 11:54:31;;;;;;;0.20;0.20;;;22.00;98.50;;;;;;5050663;28;20049;-74
2022/05/20 11:57:04;;;;;;;0.60;0.60;;;22.20;99.20;;;;;;5073958;28;20045;-69
2022/05/20 11:59:37;;;;;;;0.55;0.52;;;22.30;97.70;;;;;;5073827;28;20087;-74
2022/05/20 12:02:08;;;;;;;0.50;0.50;;;22.60;97.10;;;;;;5074202;28;20436;-74
2022/05/20 12:04:36;;;;;;;0.55;0.55;;;22.50;98.50;;;;;;5074137;28;20349;-73
2022/05/20 12:07:09;;;;;;;0.47;0.47;;;22.50;99.90;;;;;;5073716;28;20040;-71
2022/05/20 12:09:39;;;;;;;0.45;0.45;;;22.50;99.90;;;;;;5073513;28;20057;-74
2022/05/20 12:12:20;;;;;;;1.10;0.63;;;22.60;99.50;;;;;;5074039;28;20056;-72
2022/05/20 12:15:08;;;;;;;1.75;1.10;;;22.50;99.90;;;;;;5073593;28;20048;-73
2022/05/20 12:17:38;;;;;;;0.60;0.60;;;22.40;98.50;;;;;;5073519;28;20090;-74
2022/05/20 12:26:18;;;;;;;0.57;0.38;;;22.70;98.40;;;;;;5055682;28;20049;-75
2022/05/20 12:28:44;;;;;;;0.65;0.65;;;22.60;98.30;;;;;;5073879;28;20051;-74
2022/05/20 12:31:23;;;;;;;0.30;0.30;;;22.60;98.00;;;;;;5073368;28;20445;-74
2022/05/20 12:34:05;;;;;;;0.30;0.30;;;22.60;98.30;;;;;;5073426;28;20056;-72
2022/05/20 12:36:43;;;;;;;0.30;0.30;;;22.60;97.20;;;;;;5073386;28;20062;-74
2022/05/20 12:39:09;;;;;;;0.75;0.63;;;22.60;98.40;;;;;;5074028;28;20045;-74
2022/05/20 12:41:43;;;;;;;0.93;0.50;;;22.50;97.00;;;;;;5073485;28;20159;-76
2022/05/20 12:44:17;;;;;;;0.77;0.50;;;22.50;99.20;;;;;;5073325;28;20650;-74
2022/05/20 12:46:52;;;;;;;0.30;0.30;;;22.40;98.80;;;;;;5073314;28;20451;-72
2022/05/20 12:49:20;;;;;;;0.73;0.73;;;22.30;97.60;;;;;;5073214;28;20127;-71
2022/05/20 12:51:48;;;;;;;0.40;0.40;;;22.30;96.40;;;;;;5073567;28;20131;-76
2022/05/20 12:54:17;;;;;;;1.35;1.25;;;22.30;98.20;;;;;;5074212;28;20051;-76
2022/05/20 12:56:42;;;;;;;0.40;0.40;;;22.00;97.10;;;;;;5077042;28;20044;-72
2022/05/20 12:59:17;;;;;;;0.47;0.47;;;21.90;97.10;;;;;;5076942;28;20045;-75
2022/05/20 13:01:53;;;;;;;1.85;0.95;;;22.10;98.70;;;;;;5076878;28;20048;-73
2022/05/20 13:04:20;;;;;;;0.20;0.20;;;21.90;97.90;;;;;;5077599;28;20051;-76
2022/05/20 13:06:47;;;;;;;0.43;0.43;;;21.80;99.00;;;;;;5076927;28;20044;-72
2022/05/20 13:09:25;;;;;;;0.60;0.60;;;21.70;98.60;;;;;;5077022;28;20060;-71
2022/05/20 13:11:51;;;;;;;0.40;0.40;;;21.60;97.60;;;;;;5076754;28;20068;-70
2022/05/20 13:14:19;;;;;;;0.95;0.68;;;21.40;97.50;;;;;;5076673;28;20053;-74
2022/05/20 13:16:47;;;;;;;0.68;0.68;;;21.30;99.10;;;;;;5077129;28;20060;-71
2022/05/20 13:19:15;;;;;;;0.30;0.30;;;21.20;99.50;;;;;;5076590;28;20044;-75
2022/05/20 13:21:50;;;;;;;0.45;0.45;;;21.10;99.50;;;;;;5076584;28;20128;-72
2022/05/20 13:24:19;;;;;;;0.68;0.63;;;21.00;99.90;;;;;;5076830;28;20056;-74
2022/05/20 13:26:44;;;;;;;1.23;1.00;;;20.80;99.30;;;;;;5076498;28;20051;-71
2022/05/20 13:29:18;;;;;;;0.33;0.33;;;20.80;99.90;;;;;;5076216;28;20044;-74
2022/05/20 13:31:44;;;;;;;0.40;0.40;;;20.60;98.60;;;;;;5076509;28;20041;-72
2022/05/20 13:34:10;;;;;;;0.20;0.20;;;20.50;97.80;;;;;;5076425;28;20041;-75
2022/05/20 13:36:51;;;;;;;0.65;0.57;;;20.50;98.60;;;;;;5076245;28;20480;-73
2022/05/20 13:39:20;;;;;;;0.30;0.30;;;20.50;98.60;;;;;;5076264;28;20048;-75
2022/05/20 13:41:48;;;;;;;0.30;0.30;;;20.40;99.60;;;;;;5076267;28;20045;-73
2022/05/20 13:44:14;;;;;;;2.47;2.28;;;20.30;98.50;;;;;;5076214;28;20484;-75
2022/05/20 13:49:31;;;;;;;0.30;0.30;;;20.10;99.90;;;;;;5076226;28;20049;-75